sensor_id;sensor_type;location;lat;lon;timestamp;temperature;humidity
44863;DHT22;30597;49.628;10.850;2023-02-28T00:00:24;18.00;49.50
44863;DHT22;30597;49.628;10.850;2023-02-28T00:02:50;18.00;47.80
44863;DHT22;30597;49.628;10.850;2023-02-28T00:05:18;18.00;48.10
44863;DHT22;30597;49.628;10.850;2023-02-28T00:07:44;18.00;47.80
44863;DHT22;30597;49.628;10.850;2023-02-28T00:10:13;18.00;48.00
44863;DHT22;30597;49.628;10.850;2023-02-28T00:12:39;17.90;48.00
44863;DHT22;30597;49.628;10.850;2023-02-28T00:15:10;17.90;48.20
44863;DHT22;30597;49.628;10.850;2023-02-28T00:17:36;17.90;48.40
44863;DHT22;30597;49.628;10.850;2023-02-28T00:20:02;17.80;49.10
44863;DHT22;30597;49.628;10.850;2023-02-28T00:22:29;17.80;48.50
44863;DHT22;30597;49.628;10.850;2023-02-28T00:24:55;17.70;48.50
44863;DHT22;30597;49.628;10.850;2023-02-28T00:27:21;17.70;48.70
44863;DHT22;30597;49.628;10.850;2023-02-28T00:29:47;17.70;48.80
44863;DHT22;30597;49.628;10.850;2023-02-28T00:32:12;17.60;48.80
44863;DHT22;30597;49.628;10.850;2023-02-28T00:34:38;17.60;48.70
44863;DHT22;30597;49.628;10.850;2023-02-28T00:37:06;17.60;49.00
44863;DHT22;30597;49.628;10.850;2023-02-28T00:39:34;17.50;48.90
44863;DHT22;30597;49.628;10.850;2023-02-28T00:41:59;17.50;49.00
44863;DHT22;30597;49.628;10.850;2023-02-28T00:44:25;17.50;49.10
44863;DHT22;30597;49.628;10.850;2023-02-28T00:46:50;17.50;48.80
44863;DHT22;30597;49.628;10.850;2023-02-28T00:49:17;17.40;49.00
44863;DHT22;30597;49.628;10.850;2023-02-28T00:51:43;17.40;48.70
44863;DHT22;30597;49.628;10.850;2023-02-28T00:54:08;17.40;49.00
44863;DHT22;30597;49.628;10.850;2023-02-28T00:56:34;17.40;49.00
44863;DHT22;30597;49.628;10.850;2023-02-28T00:58:59;17.30;49.00
44863;DHT22;30597;49.628;10.850;2023-02-28T01:01:25;17.40;49.30
44863;DHT22;30597;49.628;10.850;2023-02-28T01:03:50;17.30;49.20
44863;DHT22;30597;49.628;10.850;2023-02-28T01:06:16;17.30;49.30
44863;DHT22;30597;49.628;10.850;2023-02-28T01:08:42;17.30;49.30
44863;DHT22;30597;49.628;10.850;2023-02-28T01:11:12;17.30;49.20
44863;DHT22;30597;49.628;10.850;2023-02-28T01:13:38;17.30;49.40
44863;DHT22;30597;49.628;10.850;2023-02-28T01:16:04;17.30;49.60
44863;DHT22;30597;49.628;10.850;2023-02-28T01:18:29;17.20;49.50
44863;DHT22;30597;49.628;10.850;2023-02-28T01:20:55;17.20;49.50
44863;DHT22;30597;49.628;10.850;2023-02-28T01:23:22;17.20;49.60
44863;DHT22;30597;49.628;10.850;2023-02-28T01:25:50;17.20;50.10
44863;DHT22;30597;49.628;10.850;2023-02-28T01:28:15;17.20;49.90
44863;DHT22;30597;49.628;10.850;2023-02-28T01:30:41;17.10;49.60
44863;DHT22;30597;49.628;10.850;2023-02-28T01:33:07;17.10;49.60
44863;DHT22;30597;49.628;10.850;2023-02-28T01:35:36;17.10;49.60
44863;DHT22;30597;49.628;10.850;2023-02-28T01:38:02;17.10;49.80
44863;DHT22;30597;49.628;10.850;2023-02-28T01:40:28;17.10;50.00
44863;DHT22;30597;49.628;10.850;2023-02-28T01:42:53;17.10;49.90
44863;DHT22;30597;49.628;10.850;2023-02-28T01:45:24;17.10;49.80
44863;DHT22;30597;49.628;10.850;2023-02-28T01:47:52;17.10;49.90
44863;DHT22;30597;49.628;10.850;2023-02-28T01:50:22;17.00;50.00
44863;DHT22;30597;49.628;10.850;2023-02-28T01:52:48;17.00;49.90
44863;DHT22;30597;49.628;10.850;2023-02-28T01:55:16;17.00;50.00
44863;DHT22;30597;49.628;10.850;2023-02-28T01:57:46;17.00;50.00
44863;DHT22;30597;49.628;10.850;2023-02-28T02:00:16;17.00;50.00
44863;DHT22;30597;49.628;10.850;2023-02-28T02:02:44;17.00;50.20
44863;DHT22;30597;49.628;10.850;2023-02-28T02:05:16;17.00;50.20
44863;DHT22;30597;49.628;10.850;2023-02-28T02:07:44;17.00;50.20
44863;DHT22;30597;49.628;10.850;2023-02-28T02:10:14;17.00;50.10
44863;DHT22;30597;49.628;10.850;2023-02-28T02:34:52;16.90;50.60
44863;DHT22;30597;49.628;10.850;2023-02-28T02:37:36;16.80;50.60
44863;DHT22;30597;49.628;10.850;2023-02-28T02:40:17;16.80;50.70
44863;DHT22;30597;49.628;10.850;2023-02-28T02:45:38;16.80;51.00
44863;DHT22;30597;49.628;10.850;2023-02-28T02:48:08;16.80;50.80
44863;DHT22;30597;49.628;10.850;2023-02-28T02:50:39;16.80;51.00
44863;DHT22;30597;49.628;10.850;2023-02-28T02:53:07;16.80;51.10
44863;DHT22;30597;49.628;10.850;2023-02-28T02:55:39;16.70;50.80
44863;DHT22;30597;49.628;10.850;2023-02-28T02:58:09;16.70;51.00
44863;DHT22;30597;49.628;10.850;2023-02-28T03:00:50;16.70;50.90
44863;DHT22;30597;49.628;10.850;2023-02-28T03:03:19;16.70;51.00
44863;DHT22;30597;49.628;10.850;2023-02-28T03:05:58;16.70;51.20
44863;DHT22;30597;49.628;10.850;2023-02-28T03:08:25;16.70;51.20
44863;DHT22;30597;49.628;10.850;2023-02-28T03:10:59;16.70;51.00
44863;DHT22;30597;49.628;10.850;2023-02-28T03:13:46;16.60;50.70
44863;DHT22;30597;49.628;10.850;2023-02-28T03:24:41;16.60;51.00
44863;DHT22;30597;49.628;10.850;2023-02-28T03:27:17;16.60;51.40
44863;DHT22;30597;49.628;10.850;2023-02-28T03:29:50;16.50;51.30
44863;DHT22;30597;49.628;10.850;2023-02-28T03:32:29;16.50;51.20
44863;DHT22;30597;49.628;10.850;2023-02-28T03:35:06;16.50;51.30
44863;DHT22;30597;49.628;10.850;2023-02-28T03:37:35;16.50;51.20
44863;DHT22;30597;49.628;10.850;2023-02-28T03:40:23;16.50;51.20
44863;DHT22;30597;49.628;10.850;2023-02-28T03:42:55;16.40;51.20
44863;DHT22;30597;49.628;10.850;2023-02-28T03:45:29;16.40;51.30
44863;DHT22;30597;49.628;10.850;2023-02-28T03:48:02;16.40;51.30
44863;DHT22;30597;49.628;10.850;2023-02-28T03:50:37;16.40;51.20
44863;DHT22;30597;49.628;10.850;2023-02-28T03:53:14;16.30;51.10
44863;DHT22;30597;49.628;10.850;2023-02-28T03:55:48;16.40;51.60
44863;DHT22;30597;49.628;10.850;2023-02-28T03:58:38;16.40;51.50
44863;DHT22;30597;49.628;10.850;2023-02-28T04:01:16;16.30;51.60
44863;DHT22;30597;49.628;10.850;2023-02-28T04:03:44;16.40;51.70
44863;DHT22;30597;49.628;10.850;2023-02-28T04:06:18;16.40;51.70
44863;DHT22;30597;49.628;10.850;2023-02-28T04:08:44;16.40;51.50
44863;DHT22;30597;49.628;10.850;2023-02-28T04:11:30;16.40;51.80
44863;DHT22;30597;49.628;10.850;2023-02-28T04:13:57;16.40;51.60
44863;DHT22;30597;49.628;10.850;2023-02-28T04:16:23;16.30;51.70
44863;DHT22;30597;49.628;10.850;2023-02-28T04:18:48;16.30;51.60
44863;DHT22;30597;49.628;10.850;2023-02-28T04:21:14;16.30;51.60
44863;DHT22;30597;49.628;10.850;2023-02-28T04:23:39;16.30;51.70
44863;DHT22;30597;49.628;10.850;2023-02-28T04:26:05;16.30;51.80
44863;DHT22;30597;49.628;10.850;2023-02-28T04:28:31;16.40;52.00
44863;DHT22;30597;49.628;10.850;2023-02-28T04:31:03;16.30;52.50
44863;DHT22;30597;49.628;10.850;2023-02-28T04:33:30;16.40;52.50
44863;DHT22;30597;49.628;10.850;2023-02-28T04:36:04;16.60;52.50
44863;DHT22;30597;49.628;10.850;2023-02-28T04:38:32;16.70;51.90
44863;DHT22;30597;49.628;10.850;2023-02-28T04:40:59;16.80;52.10
44863;DHT22;30597;49.628;10.850;2023-02-28T04:43:27;16.80;51.80
44863;DHT22;30597;49.628;10.850;2023-02-28T04:45:53;16.90;51.40
44863;DHT22;30597;49.628;10.850;2023-02-28T04:48:25;17.00;51.30
44863;DHT22;30597;49.628;10.850;2023-02-28T04:50:52;17.00;51.30
44863;DHT22;30597;49.628;10.850;2023-02-28T04:53:18;17.10;51.10
44863;DHT22;30597;49.628;10.850;2023-02-28T04:55:44;17.10;51.10
44863;DHT22;30597;49.628;10.850;2023-02-28T04:58:11;17.10;51.10
44863;DHT22;30597;49.628;10.850;2023-02-28T05:00:37;17.20;51.10
44863;DHT22;30597;49.628;10.850;2023-02-28T05:03:03;17.20;51.60
44863;DHT22;30597;49.628;10.850;2023-02-28T05:05:28;17.30;51.00
44863;DHT22;30597;49.628;10.850;2023-02-28T05:07:54;17.30;51.00
44863;DHT22;30597;49.628;10.850;2023-02-28T05:10:21;17.30;50.90
44863;DHT22;30597;49.628;10.850;2023-02-28T05:12:47;17.40;51.00
44863;DHT22;30597;49.628;10.850;2023-02-28T05:15:14;17.50;51.00
44863;DHT22;30597;49.628;10.850;2023-02-28T05:17:40;17.60;51.10
44863;DHT22;30597;49.628;10.850;2023-02-28T05:20:06;17.60;50.90
44863;DHT22;30597;49.628;10.850;2023-02-28T05:22:34;17.60;50.70
44863;DHT22;30597;49.628;10.850;2023-02-28T05:24:59;17.70;50.90
44863;DHT22;30597;49.628;10.850;2023-02-28T05:27:25;17.70;50.90
44863;DHT22;30597;49.628;10.850;2023-02-28T05:29:50;17.80;50.80
44863;DHT22;30597;49.628;10.850;2023-02-28T05:32:16;17.80;50.70
44863;DHT22;30597;49.628;10.850;2023-02-28T05:34:42;17.80;50.70
44863;DHT22;30597;49.628;10.850;2023-02-28T05:37:14;17.80;50.60
44863;DHT22;30597;49.628;10.850;2023-02-28T05:39:41;17.90;50.60
44863;DHT22;30597;49.628;10.850;2023-02-28T05:42:07;17.90;50.50
44863;DHT22;30597;49.628;10.850;2023-02-28T05:44:33;18.00;50.70
44863;DHT22;30597;49.628;10.850;2023-02-28T05:46:58;18.00;50.40
44863;DHT22;30597;49.628;10.850;2023-02-28T05:49:24;18.00;50.30
44863;DHT22;30597;49.628;10.850;2023-02-28T05:51:49;18.00;50.30
44863;DHT22;30597;49.628;10.850;2023-02-28T05:54:15;18.00;50.40
44863;DHT22;30597;49.628;10.850;2023-02-28T05:56:40;18.00;50.40
44863;DHT22;30597;49.628;10.850;2023-02-28T05:59:09;17.90;50.30
44863;DHT22;30597;49.628;10.850;2023-02-28T06:01:37;17.90;50.40
44863;DHT22;30597;49.628;10.850;2023-02-28T06:04:04;17.80;50.40
44863;DHT22;30597;49.628;10.850;2023-02-28T06:06:30;17.80;50.00
44863;DHT22;30597;49.628;10.850;2023-02-28T06:08:56;17.70;50.70
44863;DHT22;30597;49.628;10.850;2023-02-28T06:11:22;17.70;50.70
44863;DHT22;30597;49.628;10.850;2023-02-28T06:13:56;17.70;51.20
44863;DHT22;30597;49.628;10.850;2023-02-28T06:16:23;17.60;50.90
44863;DHT22;30597;49.628;10.850;2023-02-28T06:18:48;17.60;51.20
44863;DHT22;30597;49.628;10.850;2023-02-28T06:21:14;17.50;51.20
44863;DHT22;30597;49.628;10.850;2023-02-28T06:23:39;17.50;51.30
44863;DHT22;30597;49.628;10.850;2023-02-28T06:26:05;17.40;51.30
44863;DHT22;30597;49.628;10.850;2023-02-28T06:28:31;17.40;51.50
44863;DHT22;30597;49.628;10.850;2023-02-28T06:30:57;17.30;51.10
44863;DHT22;30597;49.628;10.850;2023-02-28T06:33:22;17.30;51.30
44863;DHT22;30597;49.628;10.850;2023-02-28T06:35:51;17.20;51.20
44863;DHT22;30597;49.628;10.850;2023-02-28T06:38:17;17.20;51.40
44863;DHT22;30597;49.628;10.850;2023-02-28T06:40:44;17.10;52.30
44863;DHT22;30597;49.628;10.850;2023-02-28T06:43:10;17.00;51.80
44863;DHT22;30597;49.628;10.850;2023-02-28T06:45:42;17.00;52.40
44863;DHT22;30597;49.628;10.850;2023-02-28T06:48:07;17.10;52.30
44863;DHT22;30597;49.628;10.850;2023-02-28T06:50:33;17.00;52.30
44863;DHT22;30597;49.628;10.850;2023-02-28T06:52:58;17.00;52.20
44863;DHT22;30597;49.628;10.850;2023-02-28T06:55:24;17.00;52.30
44863;DHT22;30597;49.628;10.850;2023-02-28T06:57:49;17.00;52.20
44863;DHT22;30597;49.628;10.850;2023-02-28T07:00:16;17.00;52.20
44863;DHT22;30597;49.628;10.850;2023-02-28T07:02:42;17.10;52.30
44863;DHT22;30597;49.628;10.850;2023-02-28T07:05:07;17.30;52.30
44863;DHT22;30597;49.628;10.850;2023-02-28T07:07:33;17.40;52.00
44863;DHT22;30597;49.628;10.850;2023-02-28T07:09:59;17.60;51.70
44863;DHT22;30597;49.628;10.850;2023-02-28T07:12:25;17.80;51.40
44863;DHT22;30597;49.628;10.850;2023-02-28T07:14:50;17.90;51.20
44863;DHT22;30597;49.628;10.850;2023-02-28T07:17:16;18.10;50.90
44863;DHT22;30597;49.628;10.850;2023-02-28T07:19:41;18.20;50.80
44863;DHT22;30597;49.628;10.850;2023-02-28T07:22:07;18.30;50.60
44863;DHT22;30597;49.628;10.850;2023-02-28T07:24:33;18.30;50.40
44863;DHT22;30597;49.628;10.850;2023-02-28T07:26:58;18.40;50.40
44863;DHT22;30597;49.628;10.850;2023-02-28T07:29:25;18.50;50.30
44863;DHT22;30597;49.628;10.850;2023-02-28T07:31:51;18.50;50.30
44863;DHT22;30597;49.628;10.850;2023-02-28T07:34:19;18.60;50.30
44863;DHT22;30597;49.628;10.850;2023-02-28T07:36:44;18.70;50.80
44863;DHT22;30597;49.628;10.850;2023-02-28T07:39:10;18.70;50.30
44863;DHT22;30597;49.628;10.850;2023-02-28T07:41:35;18.70;49.90
44863;DHT22;30597;49.628;10.850;2023-02-28T07:44:12;18.70;49.90
44863;DHT22;30597;49.628;10.850;2023-02-28T07:46:38;18.80;50.00
44863;DHT22;30597;49.628;10.850;2023-02-28T07:49:05;18.80;50.00
44863;DHT22;30597;49.628;10.850;2023-02-28T07:51:31;18.90;50.10
44863;DHT22;30597;49.628;10.850;2023-02-28T07:53:57;18.90;49.70
44863;DHT22;30597;49.628;10.850;2023-02-28T07:56:22;19.00;49.50
44863;DHT22;30597;49.628;10.850;2023-02-28T07:58:48;19.00;49.30
44863;DHT22;30597;49.628;10.850;2023-02-28T08:01:14;18.90;49.30
44863;DHT22;30597;49.628;10.850;2023-02-28T08:03:40;19.00;49.50
44863;DHT22;30597;49.628;10.850;2023-02-28T08:06:08;19.00;49.60
44863;DHT22;30597;49.628;10.850;2023-02-28T08:08:39;19.10;49.60
44863;DHT22;30597;49.628;10.850;2023-02-28T08:11:05;19.10;49.60
44863;DHT22;30597;49.628;10.850;2023-02-28T08:13:31;19.20;49.70
44863;DHT22;30597;49.628;10.850;2023-02-28T08:15:57;19.30;49.80
44863;DHT22;30597;49.628;10.850;2023-02-28T08:18:23;19.30;49.40
44863;DHT22;30597;49.628;10.850;2023-02-28T08:20:49;19.30;49.20
44863;DHT22;30597;49.628;10.850;2023-02-28T08:23:15;19.30;49.30
44863;DHT22;30597;49.628;10.850;2023-02-28T08:25:40;19.40;49.40
44863;DHT22;30597;49.628;10.850;2023-02-28T08:28:06;19.40;49.50
44863;DHT22;30597;49.628;10.850;2023-02-28T08:30:31;19.50;49.50
44863;DHT22;30597;49.628;10.850;2023-02-28T08:32:57;19.50;49.40
44863;DHT22;30597;49.628;10.850;2023-02-28T08:35:23;19.50;49.30
44863;DHT22;30597;49.628;10.850;2023-02-28T08:37:49;19.60;49.30
44863;DHT22;30597;49.628;10.850;2023-02-28T08:40:15;19.60;49.30
44863;DHT22;30597;49.628;10.850;2023-02-28T08:42:46;19.60;49.30
44863;DHT22;30597;49.628;10.850;2023-02-28T08:45:13;19.70;49.20
44863;DHT22;30597;49.628;10.850;2023-02-28T08:47:39;19.70;49.10
44863;DHT22;30597;49.628;10.850;2023-02-28T08:50:06;19.70;49.40
44863;DHT22;30597;49.628;10.850;2023-02-28T08:52:32;19.70;49.00
44863;DHT22;30597;49.628;10.850;2023-02-28T08:54:57;19.70;49.20
44863;DHT22;30597;49.628;10.850;2023-02-28T08:57:23;19.80;49.10
44863;DHT22;30597;49.628;10.850;2023-02-28T08:59:51;19.70;49.20
44863;DHT22;30597;49.628;10.850;2023-02-28T09:02:17;19.80;49.00
44863;DHT22;30597;49.628;10.850;2023-02-28T09:04:42;19.80;49.00
44863;DHT22;30597;49.628;10.850;2023-02-28T09:07:11;19.90;48.90
44863;DHT22;30597;49.628;10.850;2023-02-28T09:09:37;19.80;49.00
44863;DHT22;30597;49.628;10.850;2023-02-28T09:12:03;19.80;48.90
44863;DHT22;30597;49.628;10.850;2023-02-28T09:14:29;19.90;49.00
44863;DHT22;30597;49.628;10.850;2023-02-28T09:16:54;19.90;49.00
44863;DHT22;30597;49.628;10.850;2023-02-28T09:19:20;19.90;48.90
44863;DHT22;30597;49.628;10.850;2023-02-28T09:21:46;19.90;48.90
44863;DHT22;30597;49.628;10.850;2023-02-28T09:24:11;19.90;48.50
44863;DHT22;30597;49.628;10.850;2023-02-28T09:26:39;19.90;48.80
44863;DHT22;30597;49.628;10.850;2023-02-28T09:29:05;20.00;48.90
44863;DHT22;30597;49.628;10.850;2023-02-28T09:31:32;20.00;48.80
44863;DHT22;30597;49.628;10.850;2023-02-28T09:33:58;20.00;48.80
44863;DHT22;30597;49.628;10.850;2023-02-28T09:36:25;20.00;49.00
44863;DHT22;30597;49.628;10.850;2023-02-28T09:38:51;20.00;48.90
44863;DHT22;30597;49.628;10.850;2023-02-28T09:41:21;20.20;49.00
44863;DHT22;30597;49.628;10.850;2023-02-28T09:43:51;20.10;48.80
44863;DHT22;30597;49.628;10.850;2023-02-28T09:46:40;20.10;48.60
44863;DHT22;30597;49.628;10.850;2023-02-28T09:49:17;20.10;48.70
44863;DHT22;30597;49.628;10.850;2023-02-28T09:54:23;20.20;48.70
44863;DHT22;30597;49.628;10.850;2023-02-28T10:00:00;20.30;48.60
44863;DHT22;30597;49.628;10.850;2023-02-28T10:05:28;20.30;48.50
44863;DHT22;30597;49.628;10.850;2023-02-28T10:08:00;20.30;48.50
44863;DHT22;30597;49.628;10.850;2023-02-28T10:10:47;20.30;48.40
44863;DHT22;30597;49.628;10.850;2023-02-28T10:14:10;20.30;48.30
44863;DHT22;30597;49.628;10.850;2023-02-28T10:19:03;20.40;48.40
44863;DHT22;30597;49.628;10.850;2023-02-28T10:24:44;20.40;48.40
44863;DHT22;30597;49.628;10.850;2023-02-28T10:27:18;20.30;48.20
44863;DHT22;30597;49.628;10.850;2023-02-28T10:29:46;20.30;48.40
44863;DHT22;30597;49.628;10.850;2023-02-28T10:32:19;20.30;48.20
44863;DHT22;30597;49.628;10.850;2023-02-28T10:34:55;20.20;48.20
44863;DHT22;30597;49.628;10.850;2023-02-28T10:37:22;20.20;48.30
44863;DHT22;30597;49.628;10.850;2023-02-28T10:39:48;20.20;48.30
44863;DHT22;30597;49.628;10.850;2023-02-28T10:42:27;20.20;48.40
44863;DHT22;30597;49.628;10.850;2023-02-28T10:45:10;20.20;48.60
44863;DHT22;30597;49.628;10.850;2023-02-28T10:47:56;20.20;48.60
44863;DHT22;30597;49.628;10.850;2023-02-28T11:04:34;20.10;48.00
44863;DHT22;30597;49.628;10.850;2023-02-28T11:07:19;20.10;48.00
44863;DHT22;30597;49.628;10.850;2023-02-28T11:09:48;20.00;47.80
44863;DHT22;30597;49.628;10.850;2023-02-28T11:12:36;20.10;47.70
44863;DHT22;30597;49.628;10.850;2023-02-28T11:15:05;20.00;47.70
44863;DHT22;30597;49.628;10.850;2023-02-28T11:17:32;20.00;47.70
44863;DHT22;30597;49.628;10.850;2023-02-28T11:20:01;19.90;47.20
44863;DHT22;30597;49.628;10.850;2023-02-28T11:22:31;20.00;47.60
44863;DHT22;30597;49.628;10.850;2023-02-28T11:25:00;20.00;47.30
44863;DHT22;30597;49.628;10.850;2023-02-28T11:29:56;20.10;47.30
44863;DHT22;30597;49.628;10.850;2023-02-28T11:32:26;20.10;47.60
44863;DHT22;30597;49.628;10.850;2023-02-28T11:37:37;20.10;47.50
44863;DHT22;30597;49.628;10.850;2023-02-28T11:40:12;20.20;47.90
44863;DHT22;30597;49.628;10.850;2023-02-28T11:42:58;20.20;47.80
44863;DHT22;30597;49.628;10.850;2023-02-28T11:45:44;20.20;46.30
44863;DHT22;30597;49.628;10.850;2023-02-28T11:51:00;20.20;46.30
44863;DHT22;30597;49.628;10.850;2023-02-28T11:53:37;20.30;46.40
44863;DHT22;30597;49.628;10.850;2023-02-28T11:56:21;20.20;46.30
44863;DHT22;30597;49.628;10.850;2023-02-28T11:59:00;20.30;46.70
44863;DHT22;30597;49.628;10.850;2023-02-28T12:07:50;20.50;47.20
44863;DHT22;30597;49.628;10.850;2023-02-28T12:10:25;20.40;47.20
44863;DHT22;30597;49.628;10.850;2023-02-28T12:18:53;20.50;47.40
44863;DHT22;30597;49.628;10.850;2023-02-28T12:21:59;20.50;47.60
44863;DHT22;30597;49.628;10.850;2023-02-28T12:24:55;20.50;47.80
44863;DHT22;30597;49.628;10.850;2023-02-28T12:27:27;20.50;47.70
44863;DHT22;30597;49.628;10.850;2023-02-28T12:30:02;20.50;47.90
44863;DHT22;30597;49.628;10.850;2023-02-28T12:32:35;20.50;47.90
44863;DHT22;30597;49.628;10.850;2023-02-28T12:35:06;20.40;47.90
44863;DHT22;30597;49.628;10.850;2023-02-28T12:37:46;20.50;48.20
44863;DHT22;30597;49.628;10.850;2023-02-28T12:40:21;20.40;48.10
44863;DHT22;30597;49.628;10.850;2023-02-28T12:42:52;20.30;48.10
44863;DHT22;30597;49.628;10.850;2023-02-28T12:48:02;20.20;47.60
44863;DHT22;30597;49.628;10.850;2023-02-28T12:50:29;20.20;48.30
44863;DHT22;30597;49.628;10.850;2023-02-28T12:53:02;20.20;48.60
44863;DHT22;30597;49.628;10.850;2023-02-28T12:55:56;20.20;48.60
44863;DHT22;30597;49.628;10.850;2023-02-28T12:58:36;20.20;48.80
44863;DHT22;30597;49.628;10.850;2023-02-28T13:01:32;20.20;48.70
44863;DHT22;30597;49.628;10.850;2023-02-28T13:09:29;20.20;49.20
44863;DHT22;30597;49.628;10.850;2023-02-28T13:11:56;20.20;49.10
44863;DHT22;30597;49.628;10.850;2023-02-28T13:25:01;20.50;49.00
44863;DHT22;30597;49.628;10.850;2023-02-28T13:27:40;20.50;48.90
44863;DHT22;30597;49.628;10.850;2023-02-28T13:33:32;20.50;48.80
44863;DHT22;30597;49.628;10.850;2023-02-28T13:38:38;20.60;49.00
44863;DHT22;30597;49.628;10.850;2023-02-28T13:51:49;20.60;48.80
44863;DHT22;30597;49.628;10.850;2023-02-28T13:54:28;20.70;48.90
44863;DHT22;30597;49.628;10.850;2023-02-28T14:00:16;20.70;48.90
44863;DHT22;30597;49.628;10.850;2023-02-28T14:05:27;20.60;49.00
44863;DHT22;30597;49.628;10.850;2023-02-28T14:07:57;20.60;49.10
44863;DHT22;30597;49.628;10.850;2023-02-28T14:10:29;20.50;49.20
44863;DHT22;30597;49.628;10.850;2023-02-28T14:15:46;20.50;49.30
44863;DHT22;30597;49.628;10.850;2023-02-28T14:18:25;20.40;49.20
44863;DHT22;30597;49.628;10.850;2023-02-28T14:21:14;20.40;49.40
44863;DHT22;30597;49.628;10.850;2023-02-28T14:37:43;20.10;50.10
44863;DHT22;30597;49.628;10.850;2023-02-28T14:40:28;20.20;49.90
44863;DHT22;30597;49.628;10.850;2023-02-28T14:42:57;20.20;49.80
44863;DHT22;30597;49.628;10.850;2023-02-28T14:45:23;20.30;49.80
44863;DHT22;30597;49.628;10.850;2023-02-28T14:47:52;20.40;49.70
44863;DHT22;30597;49.628;10.850;2023-02-28T14:50:22;20.40;49.60
44863;DHT22;30597;49.628;10.850;2023-02-28T14:52:54;20.50;49.50
44863;DHT22;30597;49.628;10.850;2023-02-28T14:55:45;20.60;49.50
44863;DHT22;30597;49.628;10.850;2023-02-28T14:58:29;20.60;49.30
44863;DHT22;30597;49.628;10.850;2023-02-28T15:00:58;20.70;49.40
44863;DHT22;30597;49.628;10.850;2023-02-28T15:03:38;20.70;49.30
44863;DHT22;30597;49.628;10.850;2023-02-28T15:06:15;20.70;49.30
44863;DHT22;30597;49.628;10.850;2023-02-28T15:08:42;20.70;49.30
44863;DHT22;30597;49.628;10.850;2023-02-28T15:13:48;20.70;49.10
44863;DHT22;30597;49.628;10.850;2023-02-28T15:16:17;20.70;48.90
44863;DHT22;30597;49.628;10.850;2023-02-28T15:18:54;20.70;48.80
44863;DHT22;30597;49.628;10.850;2023-02-28T15:21:21;20.70;49.00
44863;DHT22;30597;49.628;10.850;2023-02-28T15:24:12;20.70;49.10
44863;DHT22;30597;49.628;10.850;2023-02-28T15:26:43;20.70;49.20
44863;DHT22;30597;49.628;10.850;2023-02-28T15:29:15;20.70;49.20
44863;DHT22;30597;49.628;10.850;2023-02-28T15:31:49;20.60;49.20
44863;DHT22;30597;49.628;10.850;2023-02-28T15:34:39;20.60;49.70
44863;DHT22;30597;49.628;10.850;2023-02-28T15:39:55;20.50;49.80
44863;DHT22;30597;49.628;10.850;2023-02-28T15:42:22;20.40;49.80
44863;DHT22;30597;49.628;10.850;2023-02-28T15:44:48;20.40;49.80
44863;DHT22;30597;49.628;10.850;2023-02-28T15:47:22;20.40;49.80
44863;DHT22;30597;49.628;10.850;2023-02-28T15:49:51;20.30;50.00
44863;DHT22;30597;49.628;10.850;2023-02-28T15:55:20;20.20;50.20
44863;DHT22;30597;49.628;10.850;2023-02-28T15:57:48;20.10;50.30
44863;DHT22;30597;49.628;10.850;2023-02-28T16:00:18;20.00;50.30
44863;DHT22;30597;49.628;10.850;2023-02-28T16:02:44;20.10;50.40
44863;DHT22;30597;49.628;10.850;2023-02-28T16:07:40;20.10;50.40
44863;DHT22;30597;49.628;10.850;2023-02-28T16:10:08;20.20;50.30
44863;DHT22;30597;49.628;10.850;2023-02-28T16:12:36;20.30;50.20
44863;DHT22;30597;49.628;10.850;2023-02-28T16:15:07;20.30;50.10
44863;DHT22;30597;49.628;10.850;2023-02-28T16:17:35;20.40;50.00
44863;DHT22;30597;49.628;10.850;2023-02-28T16:20:12;20.40;49.80
44863;DHT22;30597;49.628;10.850;2023-02-28T16:22:39;20.50;49.90
44863;DHT22;30597;49.628;10.850;2023-02-28T16:25:04;20.50;49.90
44863;DHT22;30597;49.628;10.850;2023-02-28T16:27:36;20.50;49.90
44863;DHT22;30597;49.628;10.850;2023-02-28T16:30:04;20.60;49.90
44863;DHT22;30597;49.628;10.850;2023-02-28T16:32:32;20.60;49.60
44863;DHT22;30597;49.628;10.850;2023-02-28T16:34:59;20.60;49.50
44863;DHT22;30597;49.628;10.850;2023-02-28T16:37:25;20.70;49.80
44863;DHT22;30597;49.628;10.850;2023-02-28T16:39:51;20.70;49.60
44863;DHT22;30597;49.628;10.850;2023-02-28T16:42:26;20.70;49.60
44863;DHT22;30597;49.628;10.850;2023-02-28T16:44:54;20.70;49.50
44863;DHT22;30597;49.628;10.850;2023-02-28T16:47:20;20.70;49.60
44863;DHT22;30597;49.628;10.850;2023-02-28T16:49:45;20.70;49.60
44863;DHT22;30597;49.628;10.850;2023-02-28T16:52:13;20.70;49.70
44863;DHT22;30597;49.628;10.850;2023-02-28T16:54:39;20.70;49.70
44863;DHT22;30597;49.628;10.850;2023-02-28T16:57:05;20.70;49.60
44863;DHT22;30597;49.628;10.850;2023-02-28T16:59:32;20.70;49.70
44863;DHT22;30597;49.628;10.850;2023-02-28T17:01:58;20.70;49.70
44863;DHT22;30597;49.628;10.850;2023-02-28T17:04:25;20.60;49.60
44863;DHT22;30597;49.628;10.850;2023-02-28T17:06:51;20.50;49.70
44863;DHT22;30597;49.628;10.850;2023-02-28T17:09:20;20.50;49.80
44863;DHT22;30597;49.628;10.850;2023-02-28T17:11:46;20.40;49.80
44863;DHT22;30597;49.628;10.850;2023-02-28T17:14:12;20.40;49.90
44863;DHT22;30597;49.628;10.850;2023-02-28T17:16:39;20.30;50.10
44863;DHT22;30597;49.628;10.850;2023-02-28T17:19:12;20.30;50.20
44863;DHT22;30597;49.628;10.850;2023-02-28T17:21:38;20.30;50.30
44863;DHT22;30597;49.628;10.850;2023-02-28T17:24:04;20.10;49.80
44863;DHT22;30597;49.628;10.850;2023-02-28T17:26:30;20.00;49.30
44863;DHT22;30597;49.628;10.850;2023-02-28T17:28:56;19.90;49.40
44863;DHT22;30597;49.628;10.850;2023-02-28T17:31:23;19.80;49.40
44863;DHT22;30597;49.628;10.850;2023-02-28T17:33:49;19.80;49.40
44863;DHT22;30597;49.628;10.850;2023-02-28T17:36:17;19.70;49.30
44863;DHT22;30597;49.628;10.850;2023-02-28T17:38:47;19.60;49.30
44863;DHT22;30597;49.628;10.850;2023-02-28T17:41:13;19.60;49.30
44863;DHT22;30597;49.628;10.850;2023-02-28T17:43:38;19.70;49.20
44863;DHT22;30597;49.628;10.850;2023-02-28T17:46:05;19.80;49.10
44863;DHT22;30597;49.628;10.850;2023-02-28T17:48:32;19.90;48.80
44863;DHT22;30597;49.628;10.850;2023-02-28T17:50:58;20.00;48.60
44863;DHT22;30597;49.628;10.850;2023-02-28T17:53:23;20.00;48.40
44863;DHT22;30597;49.628;10.850;2023-02-28T17:55:49;20.10;48.30
44863;DHT22;30597;49.628;10.850;2023-02-28T17:58:15;20.10;48.10
44863;DHT22;30597;49.628;10.850;2023-02-28T18:00:41;20.20;47.90